createdAt,value
2023-01-26T00:01:31.681Z,16.58
2023-01-26T00:03:58.809Z,14.55
2023-01-26T00:06:26.561Z,15.70
2023-01-26T00:08:55.847Z,16.23
2023-01-26T00:11:27.010Z,15.23
2023-01-26T00:13:55.564Z,16.08
2023-01-26T00:16:22.663Z,17.40
2023-01-26T00:18:49.881Z,16.70
2023-01-26T00:21:22.289Z,20.02
2023-01-26T00:23:51.193Z,19.05
2023-01-26T00:26:21.549Z,17.48
2023-01-26T00:28:49.211Z,16.58
2023-01-26T00:31:22.208Z,17.92
2023-01-26T00:33:50.524Z,15.95
2023-01-26T00:36:17.861Z,16.27
2023-01-26T00:38:45.002Z,19.38
2023-01-26T00:41:30.701Z,16.83
2023-01-26T00:43:57.850Z,16.35
2023-01-26T00:46:25.192Z,15.68
2023-01-26T00:48:52.329Z,16.30
2023-01-26T00:51:19.477Z,16.58
2023-01-26T00:53:46.918Z,15.38
2023-01-26T00:56:14.990Z,17.67
2023-01-26T00:58:43.522Z,15.48
2023-01-26T01:01:10.592Z,16.10
2023-01-26T01:03:37.629Z,17.42
2023-01-26T01:06:04.795Z,13.35
2023-01-26T01:08:31.893Z,15.25
2023-01-26T01:11:10.850Z,14.50
2023-01-26T01:13:38.913Z,12.75
2023-01-26T01:16:11.824Z,17.63
2023-01-26T01:18:39.535Z,16.63
2023-01-26T01:21:08.609Z,14.18
2023-01-26T01:23:35.968Z,14.52
2023-01-26T01:26:03.419Z,16.13
2023-01-26T01:28:30.898Z,13.45
2023-01-26T01:30:58.063Z,13.70
2023-01-26T01:33:26.173Z,13.95
2023-01-26T01:35:58.474Z,13.75
2023-01-26T01:38:26.534Z,14.30
2023-01-26T01:40:55.313Z,13.27
2023-01-26T01:43:24.377Z,12.43
2023-01-26T01:45:52.946Z,13.68
2023-01-26T01:48:24.308Z,10.70
2023-01-26T01:50:55.188Z,19.25
2023-01-26T01:53:34.983Z,12.43
2023-01-26T01:56:07.766Z,11.95
2023-01-26T01:58:40.592Z,12.35
2023-01-26T02:01:07.903Z,12.80
2023-01-26T02:03:37.259Z,14.63
2023-01-26T02:06:25.113Z,10.02
2023-01-26T02:08:54.284Z,12.13
2023-01-26T02:11:33.837Z,12.80
2023-01-26T02:14:04.159Z,11.23
2023-01-26T02:16:31.371Z,10.32
2023-01-26T02:18:59.321Z,9.40
2023-01-26T02:21:26.882Z,10.25
2023-01-26T02:24:12.721Z,12.75
2023-01-26T02:26:39.845Z,11.93
2023-01-26T02:29:11.555Z,11.45
2023-01-26T02:31:40.935Z,10.35
2023-01-26T02:34:08.099Z,10.85
2023-01-26T02:36:35.434Z,10.88
2023-01-26T02:39:02.489Z,10.25
2023-01-26T02:41:48.050Z,12.90
2023-01-26T02:44:15.967Z,12.55
2023-01-26T02:46:43.265Z,12.40
2023-01-26T02:49:28.796Z,14.57
2023-01-26T02:51:55.926Z,12.48
2023-01-26T02:54:41.447Z,12.63
2023-01-26T02:57:08.699Z,10.88
2023-01-26T02:59:35.782Z,9.40
2023-01-26T03:02:03.431Z,14.88
2023-01-26T03:04:30.522Z,12.27
2023-01-26T03:06:57.579Z,13.02
2023-01-26T03:09:24.663Z,10.95
2023-01-26T03:11:51.804Z,14.68
2023-01-26T03:14:19.422Z,14.55
2023-01-26T03:16:46.671Z,15.13
2023-01-26T03:19:33.915Z,13.18
2023-01-26T03:22:19.602Z,14.93
2023-01-26T03:25:05.350Z,14.23
2023-01-26T03:27:40.188Z,13.15
2023-01-26T03:30:07.806Z,12.93
2023-01-26T03:32:34.960Z,14.52
2023-01-26T03:35:02.174Z,12.27
2023-01-26T03:37:34.852Z,13.68
2023-01-26T03:40:20.456Z,13.00
2023-01-26T03:43:06.099Z,12.93
2023-01-26T03:45:51.932Z,13.48
2023-01-26T03:48:37.671Z,14.52
2023-01-26T03:51:23.534Z,13.13
2023-01-26T03:54:09.347Z,10.77
2023-01-26T03:56:36.570Z,12.10
2023-01-26T03:59:09.587Z,11.43
2023-01-26T04:01:39.447Z,11.68
2023-01-26T04:04:26.051Z,11.90
2023-01-26T04:07:12.116Z,11.40
2023-01-26T04:09:42.153Z,13.98
2023-01-26T04:12:10.537Z,12.30
2023-01-26T04:14:55.926Z,14.73
2023-01-26T04:17:41.643Z,14.15
2023-01-26T04:20:27.773Z,14.20
2023-01-26T04:22:54.923Z,15.07
2023-01-26T04:25:22.873Z,14.43
2023-01-26T04:27:50.180Z,13.30
2023-01-26T04:30:18.451Z,11.85
2023-01-26T04:32:46.593Z,12.85
2023-01-26T04:35:13.795Z,12.32
2023-01-26T04:37:41.203Z,12.27
2023-01-26T04:40:09.375Z,13.50
2023-01-26T04:42:36.770Z,12.50
2023-01-26T04:45:04.170Z,12.50
2023-01-26T04:47:31.300Z,16.27
2023-01-26T04:49:58.909Z,12.15
2023-01-26T04:52:26.009Z,13.70
2023-01-26T04:54:53.131Z,12.73
2023-01-26T04:57:21.561Z,15.60
2023-01-26T04:59:48.784Z,11.75
2023-01-26T05:02:15.987Z,13.93
2023-01-26T05:04:43.108Z,13.60
2023-01-26T05:07:10.267Z,12.30
2023-01-26T05:09:37.416Z,11.13
2023-01-26T05:12:24.642Z,14.32
2023-01-26T05:14:51.753Z,13.70
2023-01-26T05:17:19.144Z,13.70
2023-01-26T05:19:46.707Z,13.95
2023-01-26T05:22:13.821Z,15.30
2023-01-26T05:24:40.907Z,17.88
2023-01-26T05:27:23.051Z,15.20
2023-01-26T05:29:51.300Z,15.43
2023-01-26T05:32:18.757Z,18.02
2023-01-26T05:34:46.367Z,15.27
2023-01-26T05:37:15.046Z,17.95
2023-01-26T05:39:42.886Z,19.40
2023-01-26T05:42:11.672Z,19.60
2023-01-26T05:44:40.478Z,19.02
2023-01-26T05:47:07.750Z,19.70
2023-01-26T05:49:35.055Z,21.25
2023-01-26T05:52:02.187Z,22.48
2023-01-26T05:54:29.299Z,17.02
2023-01-26T05:56:57.879Z,19.60
2023-01-26T05:59:25.037Z,17.63
2023-01-26T06:01:52.198Z,17.20
2023-01-26T06:04:19.543Z,19.55
2023-01-26T06:06:46.761Z,17.98
2023-01-26T06:09:13.981Z,15.82
2023-01-26T06:11:41.147Z,18.23
2023-01-26T06:14:08.334Z,18.60
2023-01-26T06:16:35.527Z,19.40
2023-01-26T06:19:03.138Z,17.38
2023-01-26T06:21:31.923Z,19.17
2023-01-26T06:23:59.886Z,19.27
2023-01-26T06:26:27.049Z,15.32
2023-01-26T06:28:54.283Z,18.75
2023-01-26T06:31:24.879Z,17.63
2023-01-26T06:33:52.417Z,14.68
2023-01-26T06:36:19.544Z,13.95
2023-01-26T06:38:48.668Z,17.77
2023-01-26T06:41:16.866Z,15.43
2023-01-26T06:43:48.955Z,17.25
2023-01-26T06:46:17.823Z,16.65
2023-01-26T06:48:45.207Z,14.80
2023-01-26T06:51:21.465Z,16.45
2023-01-26T06:53:56.461Z,17.42
2023-01-26T06:56:24.719Z,17.52
2023-01-26T06:58:51.835Z,16.52
2023-01-26T07:01:27.253Z,14.25
2023-01-26T07:03:55.804Z,15.40
2023-01-26T07:06:23.001Z,14.82
2023-01-26T07:08:50.070Z,16.33
2023-01-26T07:11:17.540Z,11.77
2023-01-26T07:13:44.655Z,12.98
2023-01-26T07:16:13.979Z,28.02
2023-01-26T07:18:41.267Z,18.58
2023-01-26T07:21:12.451Z,16.42
2023-01-26T07:23:39.523Z,12.48
2023-01-26T07:26:07.045Z,11.75
2023-01-26T07:28:39.802Z,14.55
2023-01-26T07:31:08.640Z,16.83
2023-01-26T07:33:36.362Z,14.73
2023-01-26T07:36:04.474Z,17.27
2023-01-26T07:38:32.499Z,13.27
2023-01-26T07:40:59.644Z,13.00
2023-01-26T07:43:26.728Z,18.67
2023-01-26T07:45:55.028Z,21.13
2023-01-26T07:48:24.792Z,18.98
2023-01-26T07:50:52.067Z,21.33
2023-01-26T07:53:19.701Z,14.25
2023-01-26T07:55:47.636Z,14.65
2023-01-26T07:58:14.783Z,16.00
2023-01-26T08:00:41.921Z,14.13
2023-01-26T08:03:09.187Z,15.90
2023-01-26T08:05:38.813Z,15.95
2023-01-26T08:08:06.366Z,29.17
2023-01-26T08:10:33.466Z,23.35
2023-01-26T08:13:01.299Z,15.93
2023-01-26T08:15:29.236Z,16.50
2023-01-26T08:17:56.448Z,18.85
2023-01-26T08:20:24.094Z,22.10
2023-01-26T08:22:51.209Z,17.63
2023-01-26T08:25:18.360Z,13.95
2023-01-26T08:27:45.478Z,21.90
2023-01-26T08:30:13.557Z,16.63
2023-01-26T08:32:40.860Z,18.08
2023-01-26T08:35:08.369Z,19.05
2023-01-26T08:37:35.512Z,20.00
2023-01-26T08:40:02.728Z,15.95
2023-01-26T08:42:29.824Z,13.40
2023-01-26T08:44:57.011Z,15.40
2023-01-26T08:47:24.158Z,16.00
2023-01-26T08:49:51.194Z,18.02
2023-01-26T08:52:18.345Z,14.75
2023-01-26T08:54:45.404Z,17.30
2023-01-26T08:57:12.603Z,17.48
2023-01-26T08:59:39.709Z,22.38
2023-01-26T09:02:07.031Z,17.75
2023-01-26T09:04:34.175Z,21.08
2023-01-26T09:07:01.399Z,25.40
2023-01-26T09:09:28.503Z,18.25
2023-01-26T09:11:56.732Z,18.13
2023-01-26T09:14:24.809Z,17.27
2023-01-26T09:16:51.970Z,17.63
2023-01-26T09:19:19.305Z,29.55
2023-01-26T09:21:46.387Z,23.73
2023-01-26T09:24:13.517Z,17.30
2023-01-26T09:26:40.637Z,18.63
2023-01-26T09:29:07.748Z,15.73
2023-01-26T09:31:35.104Z,17.05
2023-01-26T09:34:02.345Z,18.13
2023-01-26T09:36:29.635Z,16.00
2023-01-26T09:38:57.205Z,18.95
2023-01-26T09:41:30.514Z,15.63
2023-01-26T09:44:01.075Z,17.42
2023-01-26T09:46:46.694Z,19.15
2023-01-26T09:49:19.815Z,32.13
2023-01-26T09:52:00.341Z,31.95
2023-01-26T09:54:43.016Z,24.20
2023-01-26T09:57:16.019Z,18.00
2023-01-26T10:00:30.825Z,24.40
2023-01-26T10:03:11.377Z,20.58
2023-01-26T10:05:48.053Z,16.98
2023-01-26T10:08:18.542Z,15.52
2023-01-26T10:10:54.731Z,14.95
2023-01-26T10:13:23.544Z,15.52
2023-01-26T10:16:00.047Z,17.50
2023-01-26T10:18:34.086Z,16.05
2023-01-26T10:21:04.411Z,22.60
2023-01-26T10:23:34.401Z,36.33
2023-01-26T10:26:17.353Z,40.53
2023-01-26T10:28:46.819Z,32.22
2023-01-26T10:31:23.404Z,19.98
2023-01-26T10:33:57.726Z,18.45
2023-01-26T10:36:25.476Z,21.55
2023-01-26T10:38:53.024Z,23.10
2023-01-26T10:41:20.048Z,22.00
2023-01-26T10:43:57.640Z,18.00
2023-01-26T10:46:42.348Z,13.98
2023-01-26T10:49:09.469Z,12.05
2023-01-26T10:51:39.196Z,12.55
2023-01-26T10:54:23.863Z,11.63
2023-01-26T10:56:59.979Z,13.23
2023-01-26T10:59:33.676Z,16.02
2023-01-26T11:02:21.981Z,13.63
2023-01-26T11:05:12.428Z,16.25
2023-01-26T11:07:42.539Z,16.00
2023-01-26T11:10:30.468Z,14.05
2023-01-26T11:13:22.038Z,14.18
2023-01-26T11:16:14.543Z,14.95
2023-01-26T11:19:12.561Z,16.50
2023-01-26T11:21:48.593Z,15.88
2023-01-26T11:24:42.690Z,21.27
2023-01-26T11:27:19.812Z,19.23
2023-01-26T11:29:52.894Z,16.80
2023-01-26T11:32:34.193Z,15.63
2023-01-26T11:35:23.964Z,14.32
2023-01-26T11:38:12.352Z,17.85
2023-01-26T11:41:14.374Z,19.63
2023-01-26T11:43:53.456Z,14.65
2023-01-26T11:47:06.906Z,16.55
2023-01-26T11:50:07.554Z,15.65
2023-01-26T11:52:37.307Z,16.33
2023-01-26T11:55:37.960Z,17.92
2023-01-26T11:58:13.187Z,19.80
2023-01-26T12:00:42.928Z,16.65
2023-01-26T12:03:41.674Z,16.15
2023-01-26T12:06:16.973Z,17.65
2023-01-26T12:08:53.708Z,14.15
2023-01-26T12:11:30.590Z,15.70
2023-01-26T12:14:25.031Z,15.05
2023-01-26T12:17:17.190Z,17.93
2023-01-26T12:19:53.013Z,17.20
2023-01-26T12:22:27.944Z,15.05
2023-01-26T12:25:20.462Z,19.58
2023-01-26T12:27:56.162Z,16.20
2023-01-26T12:30:43.575Z,15.55
2023-01-26T12:33:11.648Z,13.80
2023-01-26T12:35:57.541Z,15.30
2023-01-26T12:38:59.568Z,16.65
2023-01-26T12:41:26.648Z,22.60
2023-01-26T12:44:18.085Z,17.92
2023-01-26T12:46:51.603Z,17.65
2023-01-26T12:49:27.333Z,17.65
2023-01-26T12:52:06.794Z,18.08
2023-01-26T12:54:37.573Z,16.75
2023-01-26T12:57:11.780Z,16.15
2023-01-26T12:59:48.430Z,17.58
2023-01-26T13:02:22.146Z,19.15
2023-01-26T13:04:51.611Z,18.95
2023-01-26T13:07:29.557Z,18.90
2023-01-26T13:10:14.665Z,18.58
2023-01-26T13:12:47.882Z,29.17
2023-01-26T13:15:17.043Z,18.67
2023-01-26T13:17:52.864Z,19.70
2023-01-26T13:20:46.169Z,19.15
2023-01-26T13:23:28.593Z,20.05
2023-01-26T13:26:15.909Z,16.75
2023-01-26T13:28:43.718Z,18.05
2023-01-26T13:31:12.242Z,17.33
2023-01-26T13:33:41.966Z,18.23
2023-01-26T13:36:19.284Z,15.05
2023-01-26T13:39:00.375Z,15.93
2023-01-26T13:41:27.444Z,15.73
2023-01-26T13:44:08.856Z,17.33
2023-01-26T13:46:43.386Z,15.25
2023-01-26T13:51:56.481Z,16.52
2023-01-26T13:54:25.692Z,19.58
2023-01-26T13:57:11.626Z,22.45
2023-01-26T13:59:53.163Z,17.77
2023-01-26T14:02:31.994Z,21.50
2023-01-26T14:05:00.592Z,21.35
2023-01-26T14:07:35.983Z,25.25
2023-01-26T14:10:03.623Z,23.60
2023-01-26T14:12:47.331Z,16.30
2023-01-26T14:15:33.756Z,22.50
2023-01-26T14:18:05.379Z,17.63
2023-01-26T14:20:35.514Z,21.35
2023-01-26T14:23:11.652Z,25.98
2023-01-26T14:25:39.646Z,21.83
2023-01-26T14:28:13.193Z,40.38
2023-01-26T14:30:40.781Z,25.13
2023-01-26T14:33:16.254Z,28.98
2023-01-26T14:35:55.652Z,34.45
2023-01-26T14:38:22.814Z,24.88
2023-01-26T14:40:55.624Z,22.63
2023-01-26T14:43:24.012Z,38.65
2023-01-26T14:46:04.699Z,26.52
2023-01-26T14:48:51.753Z,23.25
2023-01-26T14:51:22.767Z,15.43
2023-01-26T14:54:17.977Z,21.25
2023-01-26T14:59:34.095Z,17.23
2023-01-26T15:02:14.492Z,20.73
2023-01-26T15:04:45.486Z,18.83
2023-01-26T15:07:34.016Z,20.00
2023-01-26T15:10:02.512Z,20.25
2023-01-26T15:12:35.386Z,17.38
2023-01-26T15:15:03.289Z,17.52
2023-01-26T15:17:41.926Z,16.83
2023-01-26T15:20:31.761Z,18.23
2023-01-26T15:22:58.999Z,16.77
2023-01-26T15:25:28.304Z,17.65
2023-01-26T15:28:00.472Z,13.93
2023-01-26T15:30:32.126Z,16.90
2023-01-26T15:32:59.953Z,18.98
2023-01-26T15:35:29.602Z,18.92
2023-01-26T15:38:13.409Z,17.25
2023-01-26T15:40:40.699Z,16.55
2023-01-26T15:43:18.227Z,17.27
2023-01-26T15:46:00.158Z,16.00
2023-01-26T15:48:32.748Z,18.40
2023-01-26T15:51:00.032Z,18.85
2023-01-26T15:53:27.310Z,19.95
2023-01-26T15:55:56.268Z,20.40
2023-01-26T15:58:24.569Z,28.88
2023-01-26T16:00:55.682Z,31.55
2023-01-26T16:03:23.161Z,22.45
2023-01-26T16:05:50.536Z,16.35
2023-01-26T16:08:19.279Z,17.33
2023-01-26T16:10:47.577Z,26.45
2023-01-26T16:13:19.620Z,29.23
2023-01-26T16:15:49.443Z,18.80
2023-01-26T16:18:16.841Z,17.70
2023-01-26T16:20:45.800Z,17.23
2023-01-26T16:23:17.965Z,18.27
2023-01-26T16:25:45.068Z,17.20
2023-01-26T16:28:12.264Z,20.13
2023-01-26T16:30:39.432Z,13.70
2023-01-26T16:33:06.520Z,13.10
2023-01-26T16:35:34.377Z,16.23
2023-01-26T16:38:01.586Z,25.95
2023-01-26T16:40:28.869Z,21.45
2023-01-26T16:42:55.887Z,13.27
2023-01-26T16:45:29.307Z,14.93
2023-01-26T16:47:57.787Z,16.20
2023-01-26T16:50:26.145Z,18.35
2023-01-26T16:52:53.321Z,18.45
2023-01-26T16:55:21.090Z,18.83
2023-01-26T16:57:51.466Z,14.70
2023-01-26T17:00:22.029Z,16.20
2023-01-26T17:02:52.336Z,15.48
2023-01-26T17:05:22.450Z,16.52
2023-01-26T17:07:51.172Z,17.15
2023-01-26T17:10:18.603Z,17.27
2023-01-26T17:12:45.959Z,21.73
2023-01-26T17:15:13.551Z,19.75
2023-01-26T17:17:42.544Z,19.63
2023-01-26T17:20:19.322Z,17.17
2023-01-26T17:22:47.557Z,16.58
2023-01-26T17:25:17.016Z,19.17
2023-01-26T17:27:46.844Z,19.05
2023-01-26T17:30:14.795Z,18.27
2023-01-26T17:32:43.118Z,21.95
2023-01-26T17:35:10.656Z,21.10
2023-01-26T17:37:38.837Z,21.80
2023-01-26T17:40:07.994Z,23.80
2023-01-26T17:42:38.879Z,20.92
2023-01-26T17:45:07.984Z,20.65
2023-01-26T17:47:36.066Z,26.23
2023-01-26T17:50:03.392Z,24.38
2023-01-26T17:52:31.946Z,28.52
2023-01-26T17:54:59.609Z,30.65
2023-01-26T17:57:26.673Z,30.83
2023-01-26T17:59:54.247Z,26.00
2023-01-26T18:02:21.479Z,22.42
2023-01-26T18:04:49.344Z,20.98
2023-01-26T18:07:17.049Z,18.42
2023-01-26T18:09:44.775Z,20.02
2023-01-26T18:12:12.277Z,21.73
2023-01-26T18:14:39.527Z,19.60
2023-01-26T18:17:07.252Z,19.13
2023-01-26T18:19:34.601Z,20.25
2023-01-26T18:22:02.396Z,22.20
2023-01-26T18:24:31.142Z,23.58
2023-01-26T18:26:58.801Z,19.98
2023-01-26T18:29:26.659Z,22.30
2023-01-26T18:31:54.186Z,23.85
2023-01-26T18:34:21.454Z,27.92
2023-01-26T18:36:52.934Z,34.00
2023-01-26T18:39:20.824Z,29.10
2023-01-26T18:41:48.416Z,26.80
2023-01-26T18:44:19.368Z,21.50
2023-01-26T18:46:47.549Z,22.77
2023-01-26T18:49:15.355Z,27.92
2023-01-26T18:51:48.785Z,23.08
2023-01-26T18:54:17.886Z,28.90
2023-01-26T18:56:46.374Z,27.15
2023-01-26T18:59:13.918Z,27.90
2023-01-26T19:01:41.796Z,31.35
2023-01-26T19:04:09.628Z,37.53
2023-01-26T19:06:37.259Z,40.25
2023-01-26T19:09:09.424Z,29.83
2023-01-26T19:11:41.355Z,26.83
2023-01-26T19:14:09.636Z,23.73
2023-01-26T19:16:37.837Z,26.10
2023-01-26T19:19:07.554Z,19.73
2023-01-26T19:21:36.634Z,21.85
2023-01-26T19:24:06.847Z,25.70
2023-01-26T19:26:35.011Z,19.70
2023-01-26T19:29:02.770Z,23.52
2023-01-26T19:31:31.610Z,21.50
2023-01-26T19:34:01.593Z,22.08
2023-01-26T19:36:31.355Z,20.33
2023-01-26T19:38:59.288Z,21.70
2023-01-26T19:41:27.302Z,26.73
2023-01-26T19:43:56.460Z,18.67
2023-01-26T19:46:24.946Z,22.02
2023-01-26T19:48:53.636Z,21.00
2023-01-26T19:51:26.513Z,19.35
2023-01-26T19:54:00.049Z,21.48
2023-01-26T19:56:36.348Z,21.08
2023-01-26T19:59:07.664Z,22.00
2023-01-26T20:01:36.715Z,22.80
2023-01-26T20:04:08.518Z,20.13
2023-01-26T20:06:37.873Z,19.95
2023-01-26T20:09:07.384Z,22.10
2023-01-26T20:11:36.430Z,14.90
2023-01-26T20:14:07.470Z,16.45
2023-01-26T20:16:35.928Z,18.60
2023-01-26T20:19:04.645Z,17.48
2023-01-26T20:21:33.524Z,18.23
2023-01-26T20:24:05.501Z,19.42
2023-01-26T20:26:35.044Z,16.70
2023-01-26T20:29:04.998Z,17.50
2023-01-26T20:31:34.100Z,20.63
2023-01-26T20:34:03.300Z,18.30
2023-01-26T20:36:32.639Z,17.75
2023-01-26T20:39:00.839Z,18.88
2023-01-26T20:41:31.060Z,22.65
2023-01-26T20:44:02.006Z,25.13
2023-01-26T20:46:38.183Z,30.05
2023-01-26T20:49:11.176Z,27.13
2023-01-26T20:51:40.293Z,24.85
2023-01-26T20:54:09.441Z,23.98
2023-01-26T20:56:37.140Z,23.52
2023-01-26T20:59:05.371Z,20.20
2023-01-26T21:01:37.079Z,19.92
2023-01-26T21:04:06.042Z,23.95
2023-01-26T21:06:34.468Z,20.23
2023-01-26T21:09:02.280Z,21.30
2023-01-26T21:11:32.962Z,21.15
2023-01-26T21:14:01.961Z,18.75
2023-01-26T21:16:31.308Z,18.83
2023-01-26T21:18:58.817Z,19.42
2023-01-26T21:21:26.312Z,18.25
2023-01-26T21:23:53.612Z,17.83
2023-01-26T21:26:23.886Z,21.50
2023-01-26T21:28:53.500Z,24.63
2023-01-26T21:31:22.725Z,26.23
2023-01-26T21:33:51.582Z,29.13
2023-01-26T21:36:21.870Z,33.53
2023-01-26T21:38:52.327Z,30.85
2023-01-26T21:41:43.480Z,23.13
2023-01-26T21:44:16.960Z,21.63
2023-01-26T21:46:50.045Z,24.05
2023-01-26T21:49:17.626Z,23.52
2023-01-26T21:52:03.774Z,24.10
2023-01-26T21:54:32.064Z,32.03
2023-01-26T21:56:59.687Z,31.55
2023-01-26T21:59:27.019Z,36.10
2023-01-26T22:01:55.992Z,39.83
2023-01-26T22:04:29.190Z,39.00
2023-01-26T22:06:57.696Z,37.72
2023-01-26T22:09:25.254Z,39.92
2023-01-26T22:11:52.806Z,47.25
2023-01-26T22:14:28.031Z,52.47
2023-01-26T22:16:55.092Z,51.22
2023-01-26T22:19:22.302Z,28.65
2023-01-26T22:21:49.397Z,17.60
2023-01-26T22:24:18.143Z,22.08
2023-01-26T22:26:45.353Z,20.23
2023-01-26T22:29:13.564Z,18.75
2023-01-26T22:31:42.161Z,21.45
2023-01-26T22:34:11.803Z,18.88
2023-01-26T22:36:39.649Z,18.85
2023-01-26T22:39:06.777Z,23.42
2023-01-26T22:41:34.768Z,29.58
2023-01-26T22:44:01.979Z,23.00
2023-01-26T22:46:30.586Z,22.45
2023-01-26T22:48:59.239Z,21.55
2023-01-26T22:51:30.904Z,20.25
2023-01-26T22:53:59.512Z,19.65
2023-01-26T22:56:27.919Z,19.05
2023-01-26T22:58:59.847Z,16.58
2023-01-26T23:01:31.381Z,17.80
2023-01-26T23:04:00.209Z,17.58
2023-01-26T23:06:28.608Z,16.65
2023-01-26T23:08:56.139Z,17.80
2023-01-26T23:11:26.187Z,20.17
2023-01-26T23:13:55.464Z,16.88
2023-01-26T23:16:24.215Z,16.75
2023-01-26T23:18:56.486Z,20.35
2023-01-26T23:21:24.758Z,19.95
2023-01-26T23:23:51.981Z,20.23
2023-01-26T23:26:19.458Z,18.17
2023-01-26T23:28:46.560Z,20.92
2023-01-26T23:31:15.456Z,23.17
2023-01-26T23:33:43.030Z,20.17
2023-01-26T23:36:12.781Z,18.13
2023-01-26T23:38:40.057Z,19.08
2023-01-26T23:41:08.978Z,17.98
2023-01-26T23:43:36.296Z,18.13
2023-01-26T23:46:05.099Z,19.92
2023-01-26T23:48:32.229Z,21.85
2023-01-26T23:51:00.649Z,19.77
2023-01-26T23:53:29.111Z,17.50
2023-01-26T23:55:57.328Z,20.10
2023-01-26T23:58:24.524Z,18.88
